createdAt,value
2022-09-11T00:00:18.438Z,46.05
2022-09-11T00:05:21.067Z,45.99
2022-09-11T00:10:24.331Z,46.01
2022-09-11T00:15:28.445Z,46.26
2022-09-11T00:20:33.764Z,46.01
2022-09-11T00:25:37.012Z,46.20
2022-09-11T00:30:40.930Z,46.50
2022-09-11T00:35:44.583Z,46.42
2022-09-11T00:40:47.385Z,46.57
2022-09-11T00:45:57.763Z,46.53
2022-09-11T00:51:00.384Z,46.84
2022-09-11T00:56:04.324Z,46.87
2022-09-11T01:01:09.098Z,47.14
2022-09-11T01:06:11.784Z,47.34
2022-09-11T01:11:24.073Z,47.35
2022-09-11T01:16:33.122Z,47.23
2022-09-11T01:21:45.019Z,47.23
2022-09-11T01:26:55.915Z,47.41
2022-09-11T01:32:05.749Z,47.22
2022-09-11T01:37:09.758Z,47.51
2022-09-11T01:42:14.820Z,47.59
2022-09-11T01:47:19.610Z,47.66
2022-09-11T01:52:24.234Z,47.66
2022-09-11T01:57:30.581Z,47.92
2022-09-11T02:02:36.726Z,47.98
2022-09-11T02:07:42.476Z,47.77
2022-09-11T02:12:46.250Z,48.10
2022-09-11T02:17:52.942Z,48.21
2022-09-11T02:23:01.026Z,48.33
2022-09-11T02:28:04.046Z,48.18
2022-09-11T02:33:27.953Z,48.26
2022-09-11T02:38:34.181Z,48.37
2022-09-11T02:43:42.415Z,48.32
2022-09-11T02:48:53.576Z,48.15
2022-09-11T02:54:01.815Z,48.27
2022-09-11T02:59:06.777Z,48.42
2022-09-11T03:04:11.681Z,48.29
2022-09-11T03:09:14.402Z,48.66
2022-09-11T03:14:18.367Z,48.62
2022-09-11T03:19:22.314Z,48.31
2022-09-11T03:24:26.332Z,48.35
2022-09-11T03:29:29.059Z,47.99
2022-09-11T03:34:34.337Z,48.21
2022-09-11T03:39:37.322Z,48.38
2022-09-11T03:44:40.997Z,48.06
2022-09-11T03:49:48.331Z,48.12
2022-09-11T03:54:51.895Z,48.27
2022-09-11T03:59:56.628Z,48.04
2022-09-11T04:05:00.664Z,47.97
2022-09-11T04:10:03.401Z,47.87
2022-09-11T04:15:07.589Z,47.87
2022-09-11T04:20:12.624Z,47.82
2022-09-11T04:25:15.780Z,47.82
2022-09-11T04:30:19.822Z,47.57
2022-09-11T04:35:26.963Z,47.73
2022-09-11T04:40:33.180Z,47.77
2022-09-11T04:45:36.537Z,47.73
2022-09-11T04:50:42.276Z,47.61
2022-09-11T04:56:03.518Z,47.70
2022-09-11T05:01:14.652Z,47.63
2022-09-11T05:06:20.661Z,47.93
2022-09-11T05:11:25.904Z,47.82
2022-09-11T05:16:29.655Z,48.03
2022-09-11T05:21:34.961Z,48.19
2022-09-11T05:26:38.344Z,48.15
2022-09-11T05:31:43.026Z,48.25
2022-09-11T05:36:49.327Z,48.26
2022-09-11T05:41:53.164Z,48.33
2022-09-11T05:46:55.882Z,48.37
2022-09-11T05:52:01.323Z,48.43
2022-09-11T05:57:07.764Z,48.48
2022-09-11T06:02:13.199Z,48.44
2022-09-11T06:07:26.732Z,48.81
2022-09-11T06:12:29.647Z,48.89
2022-09-11T06:17:33.693Z,49.13
2022-09-11T06:22:37.807Z,49.06
2022-09-11T06:27:40.583Z,48.93
2022-09-11T06:32:43.663Z,49.22
2022-09-11T06:37:47.848Z,49.20
2022-09-11T06:42:50.534Z,49.19
2022-09-11T06:47:53.203Z,49.34
2022-09-11T06:52:57.404Z,49.39
2022-09-11T06:58:03.583Z,49.27
2022-09-11T07:03:07.537Z,49.58
2022-09-11T07:08:13.549Z,49.49
2022-09-11T07:13:19.357Z,49.49
2022-09-11T07:18:23.124Z,49.70
2022-09-11T07:23:27.278Z,49.54
2022-09-11T07:28:30.909Z,50.17
2022-09-11T07:33:34.387Z,50.26
2022-09-11T07:38:42.215Z,50.37
2022-09-11T07:43:48.202Z,50.08
2022-09-11T07:48:51.133Z,50.21
2022-09-11T07:53:57.877Z,50.02
2022-09-11T07:59:01.940Z,50.39
2022-09-11T08:04:07.418Z,50.23
2022-09-11T08:09:14.958Z,50.32
2022-09-11T08:14:23.305Z,50.15
2022-09-11T08:19:26.261Z,50.20
2022-09-11T08:24:33.775Z,49.61
2022-09-11T08:29:38.730Z,51.82
2022-09-11T08:34:42.257Z,52.52
2022-09-11T08:39:48.612Z,52.04
2022-09-11T08:44:54.189Z,52.44
2022-09-11T08:50:21.143Z,53.00
2022-09-11T08:55:29.985Z,52.95
2022-09-11T09:00:34.196Z,53.54
2022-09-11T09:05:42.918Z,55.54
2022-09-11T09:10:52.119Z,56.23
2022-09-11T09:16:01.607Z,56.31
2022-09-11T09:21:06.816Z,56.99
2022-09-11T09:26:17.129Z,57.04
2022-09-11T09:31:22.639Z,59.10
2022-09-11T09:36:29.180Z,59.32
2022-09-11T09:42:09.776Z,59.79
2022-09-11T09:47:13.392Z,60.57
2022-09-11T09:52:18.734Z,60.91
2022-09-11T09:57:23.453Z,61.24
2022-09-11T10:02:40.378Z,59.88
2022-09-11T10:07:47.364Z,59.11
2022-09-11T10:12:59.795Z,59.63
2022-09-11T10:18:35.950Z,60.07
2022-09-11T10:23:46.043Z,59.88
2022-09-11T10:28:50.011Z,62.38
2022-09-11T10:33:54.692Z,64.38
2022-09-11T10:38:57.445Z,64.99
2022-09-11T10:44:02.356Z,64.25
2022-09-11T10:49:18.074Z,62.85
2022-09-11T10:54:24.004Z,62.85
2022-09-11T10:59:32.921Z,64.06
2022-09-11T11:04:35.520Z,65.36
2022-09-11T11:09:44.364Z,65.23
2022-09-11T11:14:59.020Z,64.51
2022-09-11T11:20:11.452Z,65.75
2022-09-11T11:25:16.589Z,65.24
2022-09-11T11:30:21.235Z,65.34
2022-09-11T11:35:24.313Z,64.37
2022-09-11T11:40:29.854Z,63.87
2022-09-11T11:45:36.181Z,61.70
2022-09-11T11:50:42.046Z,63.58
2022-09-11T11:55:49.468Z,65.21
2022-09-11T12:00:57.153Z,64.89
2022-09-11T12:05:59.825Z,65.83
2022-09-11T12:11:03.835Z,66.70
2022-09-11T12:16:15.043Z,67.17
2022-09-11T12:21:43.609Z,67.13
2022-09-11T12:26:46.213Z,66.13
2022-09-11T12:32:24.288Z,65.42
2022-09-11T12:37:28.349Z,65.40
2022-09-11T12:42:59.801Z,64.58
2022-09-11T12:48:08.530Z,62.01
2022-09-11T12:53:16.527Z,63.33
2022-09-11T12:58:25.597Z,62.70
2022-09-11T13:03:29.974Z,63.63
2022-09-11T13:08:34.400Z,64.14
2022-09-11T13:13:43.369Z,61.12
2022-09-11T13:18:47.403Z,60.18
2022-09-11T13:23:50.971Z,58.46
2022-09-11T13:28:54.988Z,58.98
2022-09-11T13:34:00.071Z,57.63
2022-09-11T13:39:03.489Z,56.45
2022-09-11T13:44:10.976Z,56.25
2022-09-11T13:49:27.394Z,55.77
2022-09-11T13:54:31.930Z,55.71
2022-09-11T13:59:39.849Z,56.17
2022-09-11T14:04:43.999Z,56.98
2022-09-11T14:09:51.863Z,55.18
2022-09-11T14:14:55.674Z,54.41
2022-09-11T14:20:01.312Z,54.81
2022-09-11T14:25:10.539Z,56.03
2022-09-11T14:30:27.761Z,54.31
2022-09-11T14:35:39.710Z,51.78
2022-09-11T14:40:45.825Z,51.64
2022-09-11T14:45:50.559Z,52.37
2022-09-11T14:50:54.599Z,51.58
2022-09-11T14:55:58.220Z,52.21
2022-09-11T15:01:01.069Z,53.35
2022-09-11T15:06:05.219Z,49.97
2022-09-11T15:11:07.920Z,47.80
2022-09-11T15:16:10.667Z,49.58
2022-09-11T15:21:14.707Z,50.17
2022-09-11T15:26:17.373Z,49.62
2022-09-11T15:31:20.148Z,50.90
2022-09-11T15:36:26.209Z,50.32
2022-09-11T15:41:30.056Z,51.42
2022-09-11T15:46:32.741Z,50.89
2022-09-11T15:51:36.846Z,49.95
2022-09-11T15:56:39.470Z,49.84
2022-09-11T16:01:42.301Z,49.58
2022-09-11T16:06:47.608Z,50.29
2022-09-11T16:11:50.693Z,51.06
2022-09-11T16:16:53.537Z,51.47
2022-09-11T16:21:58.082Z,53.29
2022-09-11T16:27:01.645Z,53.21
2022-09-11T16:32:04.398Z,53.40
2022-09-11T16:37:08.581Z,53.61
2022-09-11T16:42:11.549Z,53.85
2022-09-11T16:47:14.188Z,54.02
2022-09-11T16:52:18.197Z,54.73
2022-09-11T16:57:20.872Z,54.46
2022-09-11T17:02:23.550Z,55.36
2022-09-11T17:07:27.763Z,55.94
2022-09-11T17:12:30.417Z,56.23
2022-09-11T17:17:33.477Z,56.73
2022-09-11T17:22:38.031Z,57.00
2022-09-11T17:27:40.676Z,56.43
2022-09-11T17:32:43.390Z,56.09
2022-09-11T17:37:47.542Z,55.67
2022-09-11T17:42:50.226Z,55.22
2022-09-11T17:47:53.067Z,55.20
2022-09-11T17:52:57.036Z,54.83
2022-09-11T17:57:59.784Z,54.62
2022-09-11T18:03:02.559Z,53.89
2022-09-11T18:08:06.570Z,54.57
2022-09-11T18:13:09.444Z,53.35
2022-09-11T18:18:12.093Z,52.88
2022-09-11T18:23:16.652Z,52.63
2022-09-11T18:28:20.224Z,52.56
2022-09-11T18:33:23.010Z,52.24
2022-09-11T18:38:31.041Z,52.05
2022-09-11T18:43:35.655Z,51.86
2022-09-11T18:48:39.371Z,51.79
2022-09-11T18:53:43.910Z,51.50
2022-09-11T18:58:47.751Z,51.32
2022-09-11T19:03:51.746Z,51.16
2022-09-11T19:08:56.534Z,51.01
2022-09-11T19:14:03.229Z,50.90
2022-09-11T19:19:06.997Z,50.71
2022-09-11T19:24:12.593Z,50.52
2022-09-11T19:29:15.827Z,50.58
2022-09-11T19:34:18.554Z,50.28
2022-09-11T19:39:22.638Z,50.10
2022-09-11T19:44:25.948Z,49.92
2022-09-11T19:49:29.704Z,49.95
2022-09-11T19:54:34.608Z,49.75
2022-09-11T19:59:38.174Z,49.63
2022-09-11T20:04:41.010Z,49.63
2022-09-11T20:09:45.060Z,49.50
2022-09-11T20:14:48.195Z,49.38
2022-09-11T20:19:51.050Z,49.30
2022-09-11T20:24:55.197Z,49.07
2022-09-11T20:29:57.827Z,49.00
2022-09-11T20:35:00.730Z,49.12
2022-09-11T20:40:05.517Z,48.98
2022-09-11T20:45:09.042Z,48.87
2022-09-11T20:50:13.177Z,48.99
2022-09-11T20:55:17.404Z,49.08
2022-09-11T21:00:20.361Z,48.86
2022-09-11T21:05:23.098Z,48.85
2022-09-11T21:10:28.388Z,48.69
2022-09-11T21:15:31.182Z,48.73
2022-09-11T21:20:33.920Z,48.49
2022-09-11T21:25:40.861Z,48.74
2022-09-11T21:30:43.878Z,48.79
2022-09-11T21:35:50.714Z,48.75
2022-09-11T21:40:54.880Z,48.72
2022-09-11T21:45:57.581Z,48.62
2022-09-11T21:51:06.223Z,48.78
2022-09-11T21:56:16.415Z,48.58
2022-09-11T22:01:19.945Z,48.84
2022-09-11T22:06:24.747Z,48.67
2022-09-11T22:11:28.975Z,48.63
2022-09-11T22:16:31.695Z,48.80
2022-09-11T22:21:34.410Z,48.80
2022-09-11T22:26:38.482Z,48.75
2022-09-11T22:31:41.163Z,48.77
2022-09-11T22:36:43.872Z,48.74
2022-09-11T22:41:47.882Z,48.98
2022-09-11T22:46:50.855Z,49.12
2022-09-11T22:51:53.533Z,48.94
2022-09-11T22:56:57.546Z,48.92
2022-09-11T23:02:00.439Z,49.05
2022-09-11T23:07:19.773Z,48.94
2022-09-11T23:12:23.764Z,49.08
2022-09-11T23:17:26.968Z,48.77
2022-09-11T23:22:30.126Z,48.88
2022-09-11T23:27:34.199Z,49.01
2022-09-11T23:32:41.665Z,49.24
2022-09-11T23:37:45.508Z,49.46
2022-09-11T23:42:49.707Z,49.46
2022-09-11T23:47:52.390Z,49.84
2022-09-11T23:52:55.029Z,50.05
2022-09-11T23:57:59.328Z,49.94
